createdAt,value
2018-03-11T00:04:53.000Z,992.459
2018-03-11T00:14:53.000Z,992.477
2018-03-11T00:24:53.000Z,992.476
2018-03-11T00:34:54.000Z,992.518
2018-03-11T00:44:53.000Z,992.522
2018-03-11T00:54:54.000Z,992.447
2018-03-11T01:04:54.000Z,992.389
2018-03-11T01:14:54.000Z,992.307
2018-03-11T01:24:54.000Z,992.191
2018-03-11T01:34:54.000Z,992.048
2018-03-11T01:44:54.000Z,991.942
2018-03-11T01:54:54.000Z,991.791
2018-03-11T02:04:54.000Z,991.705
2018-03-11T02:14:54.000Z,991.447
2018-03-11T02:24:54.000Z,991.285
2018-03-11T02:34:54.000Z,991.174
2018-03-11T02:44:54.000Z,991.048
2018-03-11T02:54:54.000Z,990.995
2018-03-11T03:04:54.000Z,990.82
2018-03-11T03:14:54.000Z,990.733
2018-03-11T03:24:54.000Z,990.689
2018-03-11T03:34:54.000Z,990.65
2018-03-11T03:44:54.000Z,990.583
2018-03-11T03:54:54.000Z,990.479
2018-03-11T04:04:54.000Z,990.35
2018-03-11T04:14:54.000Z,990.229
2018-03-11T04:24:54.000Z,990.043
2018-03-11T04:34:54.000Z,989.948
2018-03-11T04:44:54.000Z,989.856
2018-03-11T04:54:54.000Z,989.717
2018-03-11T05:04:54.000Z,989.71
2018-03-11T05:14:54.000Z,989.679
2018-03-11T05:24:54.000Z,989.571
2018-03-11T05:34:54.000Z,989.343
2018-03-11T05:44:54.000Z,989.149
2018-03-11T05:54:54.000Z,989.069
2018-03-11T06:04:54.000Z,988.96
2018-03-11T06:14:54.000Z,988.921
2018-03-11T06:24:54.000Z,988.805
2018-03-11T06:34:54.000Z,988.636
2018-03-11T06:44:54.000Z,988.521
2018-03-11T06:54:54.000Z,988.482
2018-03-11T07:04:54.000Z,988.633
2018-03-11T07:14:54.000Z,988.442
2018-03-11T07:24:54.000Z,988.419
2018-03-11T07:34:55.000Z,988.235
2018-03-11T07:44:54.000Z,988.171
2018-03-11T07:54:54.000Z,988.159
2018-03-11T08:04:54.000Z,988.176
2018-03-11T08:14:54.000Z,988.068
2018-03-11T08:24:54.000Z,987.973
2018-03-11T08:34:54.000Z,988.101
2018-03-11T08:44:54.000Z,988.056
2018-03-11T08:54:54.000Z,988.031
2018-03-11T09:04:54.000Z,988.012
2018-03-11T09:14:55.000Z,987.994
2018-03-11T09:24:55.000Z,987.956
2018-03-11T09:34:55.000Z,987.925
2018-03-11T09:44:55.000Z,987.883
2018-03-11T09:54:55.000Z,987.701
2018-03-11T10:04:55.000Z,987.669
2018-03-11T10:14:55.000Z,987.56
2018-03-11T10:24:55.000Z,987.394
2018-03-11T10:34:55.000Z,987.335
2018-03-11T10:44:55.000Z,987.335
2018-03-11T10:54:55.000Z,987.17
2018-03-11T11:04:55.000Z,986.969
2018-03-11T11:14:55.000Z,986.9
2018-03-11T11:24:55.000Z,986.672
2018-03-11T11:34:55.000Z,986.563
2018-03-11T11:44:55.000Z,986.51
2018-03-11T11:54:55.000Z,986.543
2018-03-11T12:04:55.000Z,986.54
2018-03-11T12:14:55.000Z,986.444
2018-03-11T12:24:55.000Z,986.548
2018-03-11T12:34:55.000Z,986.414
2018-03-11T12:44:55.000Z,986.396
2018-03-11T12:54:55.000Z,986.346
2018-03-11T13:04:55.000Z,986.273
2018-03-11T13:14:55.000Z,986.126
2018-03-11T13:24:57.000Z,986.123
2018-03-11T13:34:55.000Z,986.021
2018-03-11T13:44:55.000Z,985.945
2018-03-11T13:54:55.000Z,985.893
2018-03-11T14:04:55.000Z,985.908
2018-03-11T14:14:55.000Z,985.912
2018-03-11T14:24:55.000Z,985.856
2018-03-11T14:34:55.000Z,985.71
2018-03-11T14:54:55.000Z,985.789
2018-03-11T15:04:55.000Z,985.879
2018-03-11T15:14:55.000Z,985.975
2018-03-11T15:24:55.000Z,986.052
2018-03-11T15:34:55.000Z,986.04
2018-03-11T15:44:55.000Z,986.095
2018-03-11T15:54:55.000Z,986.089
2018-03-11T16:04:55.000Z,986.084
2018-03-11T16:14:55.000Z,985.934
2018-03-11T16:24:55.000Z,985.971
2018-03-11T16:34:55.000Z,986.005
2018-03-11T16:44:55.000Z,986.116
2018-03-11T16:54:55.000Z,986.18
2018-03-11T17:04:55.000Z,986.203
2018-03-11T17:14:56.000Z,986.264
2018-03-11T17:24:56.000Z,986.304
2018-03-11T17:34:56.000Z,986.324
2018-03-11T17:44:57.000Z,986.345
2018-03-11T17:54:56.000Z,986.334
2018-03-11T18:04:56.000Z,986.396
2018-03-11T18:14:56.000Z,986.377
2018-03-11T18:24:56.000Z,986.378
2018-03-11T18:34:57.000Z,986.393
2018-03-11T18:44:56.000Z,986.359
2018-03-11T18:54:59.000Z,986.363
2018-03-11T19:14:56.000Z,986.367
2018-03-11T19:24:56.000Z,986.26
2018-03-11T19:34:56.000Z,986.405
2018-03-11T19:44:58.000Z,986.336
2018-03-11T19:54:56.000Z,986.26
2018-03-11T20:04:56.000Z,986.218
2018-03-11T20:14:58.000Z,986.178
2018-03-11T20:34:58.000Z,986.13
2018-03-11T20:44:56.000Z,986.172
2018-03-11T20:54:58.000Z,986.149
2018-03-11T21:04:58.000Z,986.119
2018-03-11T21:14:56.000Z,986.127
2018-03-11T21:24:56.000Z,986.063
2018-03-11T21:34:58.000Z,986.035
2018-03-11T21:44:56.000Z,986.044
2018-03-11T22:04:56.000Z,985.991
2018-03-11T22:14:56.000Z,985.962
2018-03-11T22:24:56.000Z,985.889
2018-03-11T22:34:57.000Z,985.785
2018-03-11T22:44:56.000Z,985.765
2018-03-11T22:54:56.000Z,985.745
2018-03-11T23:04:56.000Z,985.65
2018-03-11T23:14:58.000Z,985.594
2018-03-11T23:24:56.000Z,985.396
2018-03-11T23:34:56.000Z,985.337
2018-03-11T23:44:56.000Z,985.246
2018-03-11T23:54:56.000Z,985.238
